Time,TemperatureF,DewpointF,PressureIn,WindDirection,WindDirectionDegrees,WindSpeedMPH,WindSpeedGustMPH,Humidity,HourlyPrecipIn,Conditions,Clouds,dailyrainin,SoftwareType,DateUTC
2013-02-26 00:05:00,-5.4,-8.5,29.59,ENE,67,0.0,-999.0,86,-99.99,,,0.00,Acu-Link.com,2013-02-26 07:05:00,
2013-02-26 00:20:00,-5.6,-8.0,29.59,NE,45,0.0,-999.0,89,-99.99,,,0.00,Acu-Link.com,2013-02-26 07:20:00,
2013-02-26 00:36:00,-4.4,-4.8,29.58,NE,45,3.7,-999.0,98,-99.99,,,0.00,Acu-Link.com,2013-02-26 07:36:00,
2013-02-26 00:51:00,-3.6,-5.1,29.57,NE,45,4.2,-999.0,93,-99.99,,,0.00,Acu-Link.com,2013-02-26 07:51:00,
2013-02-26 01:06:00,-3.8,-7.2,29.57,ESE,112,3.7,-999.0,85,-99.99,,,0.00,Acu-Link.com,2013-02-26 08:06:00,
2013-02-26 01:21:00,-5.8,-9.1,29.56,NE,45,3.7,-999.0,85,-99.99,,,0.00,Acu-Link.com,2013-02-26 08:21:00,
2013-02-26 01:36:00,-6.0,-8.8,29.57,NNW,337,1.7,-999.0,87,-99.99,,,0.00,Acu-Link.com,2013-02-26 08:36:00,
2013-02-26 01:51:00,-4.7,-6.0,29.57,NNE,22,2.7,-999.0,94,-99.99,,,0.00,Acu-Link.com,2013-02-26 08:51:00,
2013-02-26 05:04:00,-9.8,-12.6,29.51,ENE,67,1.7,-999.0,87,-99.99,,,0.00,Acu-Link.com,2013-02-26 12:04:00,
2013-02-26 05:19:00,-8.9,-10.8,29.50,NE,45,2.7,-999.0,91,-99.99,,,0.00,Acu-Link.com,2013-02-26 12:19:00,
2013-02-26 05:34:00,-6.7,-8.4,29.50,NE,45,3.2,-999.0,92,-99.99,,,0.00,Acu-Link.com,2013-02-26 12:34:00,
2013-02-26 05:49:00,-5.8,-8.2,29.50,East,90,3.2,-999.0,89,-99.99,,,0.00,Acu-Link.com,2013-02-26 12:49:00,
2013-02-26 06:05:00,-6.0,-8.8,29.51,ESE,112,2.2,-999.0,87,-99.99,,,0.00,Acu-Link.com,2013-02-26 13:05:00,
2013-02-26 06:20:00,-6.0,-8.8,29.50,ESE,112,2.2,-999.0,87,-99.99,,,0.00,Acu-Link.com,2013-02-26 13:20:00,
2013-02-26 06:35:00,-5.4,-8.0,29.50,NE,45,4.2,-999.0,88,-99.99,,,0.00,Acu-Link.com,2013-02-26 13:35:00,
2013-02-26 06:50:00,-4.5,-6.9,29.50,ENE,67,2.7,-999.0,89,-99.99,,,0.00,Acu-Link.com,2013-02-26 13:50:00,
2013-02-26 07:05:00,-3.5,-5.7,29.49,ESE,112,2.2,-999.0,90,-99.99,,,0.00,Acu-Link.com,2013-02-26 14:05:00,
2013-02-26 07:20:00,-2.7,-5.1,29.50,ENE,67,2.7,-999.0,89,-99.99,,,0.00,Acu-Link.com,2013-02-26 14:20:00,
2013-02-26 07:36:00,-1.8,-4.2,29.48,WSW,247,0.0,-999.0,89,-99.99,,,0.00,Acu-Link.com,2013-02-26 14:36:00,
2013-02-26 07:51:00,3.4,2.1,29.49,ENE,67,2.7,-999.0,94,-99.99,,,0.00,Acu-Link.com,2013-02-26 14:51:00,
2013-02-26 08:07:00,0.9,-3.0,29.49,SE,135,1.1,-999.0,83,-99.99,,,0.00,Acu-Link.com,2013-02-26 15:07:00,
2013-02-26 08:22:00,2.5,-1.0,29.49,ESE,112,2.7,-999.0,85,-99.99,,,0.00,Acu-Link.com,2013-02-26 15:22:00,
2013-02-26 08:37:00,3.6,-0.9,29.49,SE,135,1.7,-999.0,81,-99.99,,,0.00,Acu-Link.com,2013-02-26 15:37:00,
2013-02-26 08:52:00,4.5,-1.1,29.50,SSW,202,2.2,-999.0,77,-99.99,,,0.00,Acu-Link.com,2013-02-26 15:52:00,
2013-02-26 09:07:00,7.5,-0.5,29.50,SE,135,1.7,-999.0,69,-99.99,,,0.00,Acu-Link.com,2013-02-26 16:07:00,
2013-02-26 09:23:00,8.6,-0.4,29.50,ESE,112,1.1,-999.0,66,-99.99,,,0.00,Acu-Link.com,2013-02-26 16:23:00,
2013-02-26 09:38:00,7.3,-0.4,29.49,SSE,157,3.2,-999.0,70,-99.99,,,0.00,Acu-Link.com,2013-02-26 16:38:00,
2013-02-26 09:53:00,7.7,0.6,29.49,ENE,67,2.7,-999.0,72,-99.99,,,0.00,Acu-Link.com,2013-02-26 16:53:00,
2013-02-26 10:09:00,8.4,1.0,29.49,East,90,4.2,-999.0,71,-99.99,,,0.00,Acu-Link.com,2013-02-26 17:09:00,
2013-02-26 10:24:00,8.4,2.7,29.49,ESE,112,2.2,-999.0,77,-99.99,,,0.00,Acu-Link.com,2013-02-26 17:24:00,
2013-02-26 10:39:00,9.7,4.5,29.49,ESE,112,2.7,-999.0,79,-99.99,,,0.00,Acu-Link.com,2013-02-26 17:39:00,
2013-02-26 10:54:00,11.1,5.3,29.49,SE,135,2.7,-999.0,77,-99.99,,,0.00,Acu-Link.com,2013-02-26 17:54:00,
2013-02-26 11:09:00,13.3,6.9,29.49,East,90,2.7,-999.0,75,-99.99,,,0.00,Acu-Link.com,2013-02-26 18:09:00,
2013-02-26 11:24:00,17.6,9.2,29.49,ESE,112,4.7,-999.0,69,-99.99,,,0.00,Acu-Link.com,2013-02-26 18:24:00,
2013-02-26 11:39:00,17.1,8.7,29.48,ESE,112,3.7,-999.0,69,-99.99,,,0.00,Acu-Link.com,2013-02-26 18:39:00,
2013-02-26 11:54:00,17.4,7.7,29.48,ESE,112,3.2,-999.0,65,-99.99,,,0.00,Acu-Link.com,2013-02-26 18:54:00,
2013-02-26 12:10:00,21.6,10.6,29.48,East,90,2.2,-999.0,62,-99.99,,,0.00,Acu-Link.com,2013-02-26 19:10:00,
2013-02-26 12:25:00,24.1,13.0,29.47,ESE,112,1.7,-999.0,62,-99.99,,,0.00,Acu-Link.com,2013-02-26 19:25:00,
2013-02-26 12:40:00,23.7,13.0,29.47,NE,45,2.7,-999.0,63,-99.99,,,0.00,Acu-Link.com,2013-02-26 19:40:00,
2013-02-26 12:55:00,22.1,13.2,29.46,East,90,3.7,-999.0,68,-99.99,,,0.01,Acu-Link.com,2013-02-26 19:55:00,
2013-02-26 13:11:00,20.8,13.8,29.47,ENE,67,2.2,-999.0,74,-99.99,,,0.01,Acu-Link.com,2013-02-26 20:11:00,
2013-02-26 13:26:00,22.8,13.8,29.47,NNW,337,1.7,-999.0,68,-99.99,,,0.01,Acu-Link.com,2013-02-26 20:26:00,
2013-02-26 13:41:00,24.8,16.1,29.47,North,0,0.0,-999.0,69,-99.99,,,0.01,Acu-Link.com,2013-02-26 20:41:00,
2013-02-26 13:57:00,26.8,16.6,29.47,WNW,292,4.7,-999.0,65,-99.99,,,0.01,Acu-Link.com,2013-02-26 20:57:00,
2013-02-26 14:12:00,27.5,18.0,29.48,SW,225,7.3,-999.0,67,-99.99,,,0.01,Acu-Link.com,2013-02-26 21:12:00,
2013-02-26 14:27:00,26.8,17.0,29.49,West,270,3.7,-999.0,66,-99.99,,,0.01,Acu-Link.com,2013-02-26 21:27:00,
2013-02-26 14:43:00,27.5,17.7,29.49,SW,225,5.3,-999.0,66,-99.99,,,0.01,Acu-Link.com,2013-02-26 21:43:00,
2013-02-26 14:58:00,26.1,17.0,29.51,South,180,3.7,-999.0,68,-99.99,,,0.01,Acu-Link.com,2013-02-26 21:58:00,
2013-02-26 15:13:00,25.0,16.6,29.51,SSW,202,4.2,-999.0,70,-99.99,,,0.01,Acu-Link.com,2013-02-26 22:13:00,
2013-02-26 15:28:00,25.5,17.1,29.52,SW,225,5.8,-999.0,70,-99.99,,,0.01,Acu-Link.com,2013-02-26 22:28:00,
2013-02-26 15:43:00,25.0,17.3,29.52,SW,225,5.8,-999.0,72,-99.99,,,0.01,Acu-Link.com,2013-02-26 22:43:00,
2013-02-26 15:59:00,24.4,16.4,29.52,WNW,292,3.2,-999.0,71,-99.99,,,0.01,Acu-Link.com,2013-02-26 22:59:00,
2013-02-26 16:14:00,23.9,16.2,29.53,SSW,202,8.9,-999.0,72,-99.99,,,0.01,Acu-Link.com,2013-02-26 23:14:00,
2013-02-26 16:29:00,24.4,16.4,29.54,NNE,22,5.8,-999.0,71,-99.99,,,0.01,Acu-Link.com,2013-02-26 23:29:00,
2013-02-26 16:44:00,24.6,14.2,29.55,SSW,202,4.7,-999.0,64,-99.99,,,0.01,Acu-Link.com,2013-02-26 23:44:00,
2013-02-26 16:59:00,24.4,13.3,29.57,SW,225,4.2,-999.0,62,-99.99,,,0.01,Acu-Link.com,2013-02-26 23:59:00,
2013-02-26 17:14:00,22.6,12.6,29.57,West,270,6.3,-999.0,65,-99.99,,,0.01,Acu-Link.com,2013-02-27 00:14:00,
2013-02-26 17:30:00,21.0,11.5,29.58,SSW,202,3.2,-999.0,66,-99.99,,,0.01,Acu-Link.com,2013-02-27 00:30:00,
2013-02-26 17:45:00,20.3,11.5,29.60,West,270,1.1,-999.0,68,-99.99,,,0.01,Acu-Link.com,2013-02-27 00:45:00,
2013-02-26 18:00:00,18.5,10.1,29.61,West,270,3.7,-999.0,69,-99.99,,,0.01,Acu-Link.com,2013-02-27 01:00:00,
2013-02-26 18:16:00,17.6,10.7,29.62,WNW,292,0.0,-999.0,74,-99.99,,,0.01,Acu-Link.com,2013-02-27 01:16:00,
2013-02-26 18:31:00,17.1,10.3,29.63,SSW,202,2.7,-999.0,74,-99.99,,,0.01,Acu-Link.com,2013-02-27 01:31:00,
2013-02-26 18:46:00,16.5,9.4,29.65,South,180,2.7,-999.0,73,-99.99,,,0.01,Acu-Link.com,2013-02-27 01:46:00,
2013-02-26 19:01:00,15.6,7.9,29.66,South,180,2.2,-999.0,71,-99.99,,,0.01,Acu-Link.com,2013-02-27 02:01:00,
2013-02-26 19:32:00,13.8,9.9,29.68,SSW,202,2.7,-999.0,84,-99.99,,,0.01,Acu-Link.com,2013-02-27 02:32:00,
2013-02-26 19:47:00,13.1,9.5,29.68,SW,225,2.2,-999.0,85,-99.99,,,0.01,Acu-Link.com,2013-02-27 02:47:00,
2013-02-26 20:02:00,12.7,7.7,29.69,NE,45,1.7,-999.0,80,-99.99,,,0.01,Acu-Link.com,2013-02-27 03:02:00,
2013-02-26 20:17:00,10.4,6.8,29.71,NNE,22,0.0,-999.0,85,-99.99,,,0.01,Acu-Link.com,2013-02-27 03:17:00,
2013-02-26 20:33:00,8.4,5.1,29.71,WNW,292,0.0,-999.0,86,-99.99,,,0.01,Acu-Link.com,2013-02-27 03:33:00,
2013-02-26 20:48:00,7.2,6.8,29.73,NW,315,0.0,-999.0,98,-99.99,,,0.01,Acu-Link.com,2013-02-27 03:48:00,
2013-02-26 21:03:00,6.8,6.4,29.73,WNW,292,0.0,-999.0,98,-99.99,,,0.01,Acu-Link.com,2013-02-27 04:03:00,
2013-02-26 21:18:00,5.4,5.0,29.74,SE,135,0.0,-999.0,98,-99.99,,,0.01,Acu-Link.com,2013-02-27 04:18:00,
2013-02-26 21:33:00,4.5,3.8,29.75,NNE,22,0.0,-999.0,97,-99.99,,,0.01,Acu-Link.com,2013-02-27 04:33:00,
2013-02-26 21:49:00,4.6,4.2,29.75,NNE,22,0.0,-999.0,98,-99.99,,,0.01,Acu-Link.com,2013-02-27 04:49:00,
2013-02-26 22:04:00,4.8,4.4,29.76,WNW,292,2.7,-999.0,98,-99.99,,,0.01,Acu-Link.com,2013-02-27 05:04:00,
2013-02-26 22:19:00,4.5,1.0,29.76,NNE,22,2.7,-999.0,85,-99.99,,,0.01,Acu-Link.com,2013-02-27 05:19:00,
2013-02-26 22:35:00,2.1,-2.1,29.77,ENE,67,0.0,-999.0,82,-99.99,,,0.01,Acu-Link.com,2013-02-27 05:35:00,
2013-02-26 22:50:00,0.1,-3.6,29.78,SW,225,0.0,-999.0,84,-99.99,,,0.01,Acu-Link.com,2013-02-27 05:50:00,
2013-02-26 23:05:00,-0.9,-2.4,29.78,West,270,0.0,-999.0,93,-99.99,,,0.01,Acu-Link.com,2013-02-27 06:05:00,
2013-02-26 23:20:00,-1.8,-3.8,29.79,ESE,112,0.0,-999.0,91,-99.99,,,0.01,Acu-Link.com,2013-02-27 06:20:00,
2013-02-26 23:36:00,-3.6,-5.3,29.79,South,180,0.0,-999.0,92,-99.99,,,0.01,Acu-Link.com,2013-02-27 06:36:00,
2013-02-26 23:51:00,-4.5,-6.7,29.79,WNW,292,0.0,-999.0,90,-99.99,,,0.01,Acu-Link.com,2013-02-27 06:51:00,